Pagina principale
METAR-TAF:

METAR-TAF

Aeroporti :

Grazzanise, Italia

latitudine: 41-03N, longitudine: 014-04E, altezza: 9 m

Osservazione

Il bollettino è stato emesso 1 ora e 19 minuti fa, alle 02:55 UTC
Temperature 11°C
Umidità 94%
Pressione 1024 hPa
Visibilità: 1200 m
Nuvoloso ad un'altezza di 1000 ft
foschia

METAR: LIRM 270255Z /////KT 1200 BR BKN010 11/10 Q1024

Ora: 05:14 (04:14 UTC)

Previsione

Il bollettino è stato emesso 2 ore e 14 minuti fa, alle 02:00 UTC
Previsione valida dal 27 alle 03 UTC al 27 alle 12 UTC
Vento 5 kt da est/nord-est
Visibilità: 2000 m
Nubi sparse ad un'altezza di 1000 ft
foschia
Temporaneamente
dal 27 alle 03 UTC al 27 alle 07 UTC
Visibilità: 0600 m
Nuvoloso ad un'altezza di 400 ft
nebbia
Evoluzione graduale
dal 27 alle 07 UTC al 27 alle 09 UTC
Visibilità: 6000 m

TAF: LIRM 270200Z 2703/2712 07005KT 2000 BR SCT010 TEMPO 2703/2707 0600 FG BKN004 BECMG 2707/2709 6000

Osservazioni e previsioni meteorologiche di più di 4000 aeroporti (messaggi METAR e TAF).

Le stazioni disponibili sono rappresentate dai dischi gialli e rossi sulla carta.

Puntare il mouse per vedere il nome della stazione.

Clicca sopra per visualizzare le osservazioni e previsioni meteorologiche.

Per cambiare la mappa : fare clic sui pulsanti verdi con una croce nera per ingrandire, il pulsante verde con un trattino per diminuire, o sulla freccia verde per le mappe adiacenti.


METAR-TAF: